Time;durP1;ratioP1;P1;durP2;ratioP2;P2;SDS_P1;SDS_P2;PMS_P1;PMS_P2;Temp;Humidity;BMP_temperature;BMP_pressure;BME280_temperature;BME280_humidity;BME280_pressure;Samples;Min_cycle;Max_cycle;Signal;HPM_P1;HPM_P2
2020/12/18 00:00:52;;;;;;;25.58;12.75;;;5.70;99.90;;;;;;4979002;28;20082;-80
2020/12/18 00:03:18;;;;;;;17.70;11.48;;;5.70;99.90;;;;;;4976431;28;20468;-79
2020/12/18 00:05:45;;;;;;;22.95;13.45;;;5.70;99.90;;;;;;4980103;28;20223;-79
2020/12/18 00:08:12;;;;;;;19.77;12.70;;;5.60;99.90;;;;;;4979786;28;20074;-81
2020/12/18 00:10:39;;;;;;;22.85;12.57;;;5.60;99.90;;;;;;4979943;28;20142;-80
2020/12/18 00:13:05;;;;;;;23.02;12.43;;;5.60;99.90;;;;;;4979575;28;20078;-79
2020/12/18 00:15:31;;;;;;;21.88;12.93;;;5.50;99.90;;;;;;4981444;28;20138;-82
2020/12/18 00:17:58;;;;;;;18.05;12.52;;;5.50;99.90;;;;;;4981465;28;20046;-80
2020/12/18 00:20:25;;;;;;;17.80;11.70;;;5.50;99.90;;;;;;4980553;28;20086;-80
2020/12/18 00:22:52;;;;;;;23.30;11.52;;;5.50;99.90;;;;;;4980707;28;20159;-81
2020/12/18 00:25:18;;;;;;;21.98;11.80;;;5.50;99.90;;;;;;4980754;28;20137;-79
2020/12/18 00:27:45;;;;;;;23.00;11.70;;;5.50;99.90;;;;;;4980356;28;20047;-82
2020/12/18 00:30:12;;;;;;;18.23;11.68;;;5.50;99.90;;;;;;4978957;28;20090;-80
2020/12/18 00:32:39;;;;;;;22.77;11.80;;;5.40;99.90;;;;;;4977916;28;20062;-80
2020/12/18 00:35:07;;;;;;;19.98;11.38;;;5.40;99.90;;;;;;4978243;28;20238;-79
2020/12/18 00:37:34;;;;;;;21.48;11.07;;;5.40;99.90;;;;;;4980773;28;20085;-82
2020/12/18 00:40:01;;;;;;;19.50;11.60;;;5.40;99.90;;;;;;4979732;28;20104;-80
2020/12/18 00:42:28;;;;;;;23.40;10.88;;;5.40;99.90;;;;;;4978486;28;20126;-79
2020/12/18 00:44:55;;;;;;;22.75;11.30;;;5.40;99.90;;;;;;4978713;28;20054;-81
2020/12/18 00:47:21;;;;;;;16.35;10.93;;;5.40;99.90;;;;;;4979658;28;20137;-82
2020/12/18 00:49:47;;;;;;;14.68;9.75;;;5.40;99.90;;;;;;4980027;28;20138;-81
2020/12/18 00:52:14;;;;;;;16.58;10.30;;;5.40;99.90;;;;;;4977904;28;20186;-80
2020/12/18 00:54:40;;;;;;;15.88;10.10;;;5.40;99.90;;;;;;4977174;28;20089;-81
2020/12/18 00:57:07;;;;;;;14.55;9.23;;;5.40;99.90;;;;;;4978277;28;20423;-79
2020/12/18 00:59:34;;;;;;;18.65;10.35;;;5.40;99.90;;;;;;4976677;28;20138;-80
2020/12/18 01:02:00;;;;;;;18.50;9.60;;;5.40;99.90;;;;;;4977433;28;20133;-79
2020/12/18 01:04:27;;;;;;;15.35;10.13;;;5.40;99.90;;;;;;4979459;28;20078;-81
2020/12/18 01:06:54;;;;;;;21.17;11.10;;;5.50;99.90;;;;;;4979471;28;20089;-80
2020/12/18 01:09:21;;;;;;;19.08;10.52;;;5.40;99.90;;;;;;4979676;28;20134;-81
2020/12/18 01:11:47;;;;;;;15.55;10.18;;;5.40;99.90;;;;;;4978007;28;20054;-80
2020/12/18 01:14:15;;;;;;;21.85;10.35;;;5.50;99.90;;;;;;4978224;28;20093;-80
2020/12/18 01:16:41;;;;;;;20.65;11.93;;;5.40;99.90;;;;;;4979172;28;20133;-80
2020/12/18 01:19:08;;;;;;;22.52;11.95;;;5.40;99.90;;;;;;4979414;28;20485;-80
2020/12/18 01:21:36;;;;;;;23.75;12.15;;;5.40;99.90;;;;;;4978521;28;20054;-81
2020/12/18 01:24:02;;;;;;;19.27;13.13;;;5.40;99.90;;;;;;4978960;28;20058;-79
2020/12/18 01:26:29;;;;;;;22.52;13.30;;;5.40;99.90;;;;;;4979201;28;20086;-79
2020/12/18 01:28:55;;;;;;;22.30;12.57;;;5.40;99.90;;;;;;4979018;28;20134;-81
2020/12/18 01:31:22;;;;;;;19.85;13.32;;;5.50;99.90;;;;;;4978993;28;20550;-81
2020/12/18 01:33:51;;;;;;;22.00;12.95;;;5.40;99.90;;;;;;4978817;28;20178;-80
2020/12/18 01:36:18;;;;;;;27.70;13.75;;;5.50;99.90;;;;;;4979504;28;20053;-80
2020/12/18 01:38:44;;;;;;;23.23;13.30;;;5.50;99.90;;;;;;4978575;28;20077;-79
2020/12/18 01:41:11;;;;;;;24.83;13.38;;;5.50;99.90;;;;;;4978075;28;20134;-79
2020/12/18 01:43:37;;;;;;;20.50;13.25;;;5.50;99.90;;;;;;4978130;28;20065;-81
2020/12/18 01:46:09;;;;;;;23.65;13.32;;;5.50;99.90;;;;;;4976809;28;20058;-79
2020/12/18 01:48:39;;;;;;;22.38;13.65;;;5.50;99.90;;;;;;4977019;28;20082;-81
2020/12/18 01:51:07;;;;;;;24.00;13.20;;;5.50;99.90;;;;;;4978281;28;20086;-77
2020/12/18 01:53:33;;;;;;;20.80;12.57;;;5.50;99.90;;;;;;4978500;28;20089;-81
2020/12/18 01:56:01;;;;;;;21.23;12.00;;;5.60;99.90;;;;;;4976028;28;20094;-82
2020/12/18 01:58:32;;;;;;;19.20;11.93;;;5.50;99.90;;;;;;4978337;28;20312;-80
2020/12/18 02:01:03;;;;;;;23.13;11.63;;;5.50;99.90;;;;;;4977524;28;20054;-79
2020/12/18 02:03:29;;;;;;;22.67;11.85;;;5.60;99.90;;;;;;4977613;28;20082;-80
2020/12/18 02:05:58;;;;;;;21.98;11.57;;;5.50;99.90;;;;;;4977774;28;20069;-81
2020/12/18 02:08:26;;;;;;;20.85;12.10;;;5.50;99.90;;;;;;4977970;28;20138;-80
2020/12/18 02:10:56;;;;;;;23.27;12.25;;;5.50;99.90;;;;;;4977450;28;20113;-82
2020/12/18 02:13:23;;;;;;;21.58;13.10;;;5.50;99.90;;;;;;4977184;28;20046;-80
2020/12/18 02:15:51;;;;;;;22.02;11.88;;;5.50;99.90;;;;;;4979412;28;20480;-81
2020/12/18 02:18:19;;;;;;;20.08;11.93;;;5.50;99.90;;;;;;4978555;28;20076;-82
2020/12/18 02:20:45;;;;;;;21.90;11.55;;;5.40;99.90;;;;;;4977423;28;20051;-81
2020/12/18 02:23:13;;;;;;;18.30;11.38;;;5.50;99.90;;;;;;4982112;28;20077;-81
2020/12/18 02:25:41;;;;;;;21.05;12.77;;;5.50;99.90;;;;;;4985011;28;20089;-80
2020/12/18 02:28:09;;;;;;;21.55;12.15;;;5.50;99.90;;;;;;4983367;28;20082;-79
2020/12/18 02:30:35;;;;;;;19.38;11.23;;;5.50;99.90;;;;;;4980330;28;20085;-79
2020/12/18 02:33:04;;;;;;;20.33;10.70;;;5.50;99.90;;;;;;4982289;28;20090;-82
2020/12/18 02:35:32;;;;;;;19.05;11.38;;;5.40;99.90;;;;;;4981445;28;20050;-80
2020/12/18 02:37:58;;;;;;;19.80;11.20;;;5.50;99.90;;;;;;4980921;28;20134;-81
2020/12/18 02:40:25;;;;;;;19.67;11.18;;;5.50;99.90;;;;;;4981394;28;20051;-77
2020/12/18 02:42:51;;;;;;;18.75;11.35;;;5.40;99.90;;;;;;4981704;28;20090;-80
2020/12/18 02:45:18;;;;;;;21.52;11.20;;;5.40;99.90;;;;;;4981010;28;20267;-79
2020/12/18 02:47:45;;;;;;;20.20;10.80;;;5.40;99.90;;;;;;4981744;28;20089;-80
2020/12/18 02:50:11;;;;;;;24.27;12.00;;;5.40;99.90;;;;;;4980740;28;20474;-81
2020/12/18 02:52:38;;;;;;;19.73;11.57;;;5.40;99.90;;;;;;4980365;28;20061;-79
2020/12/18 02:55:05;;;;;;;20.00;11.80;;;5.40;99.90;;;;;;4980666;28;20575;-79
2020/12/18 02:57:31;;;;;;;22.45;11.95;;;5.40;99.90;;;;;;4980306;28;20071;-79
2020/12/18 02:59:58;;;;;;;20.52;12.35;;;5.40;99.90;;;;;;4978015;28;20150;-80
2020/12/18 03:02:25;;;;;;;19.95;11.52;;;5.40;99.90;;;;;;4976716;28;20489;-80
2020/12/18 03:04:51;;;;;;;15.98;10.52;;;5.30;99.90;;;;;;4977641;28;20463;-79
2020/12/18 03:07:18;;;;;;;19.45;11.38;;;5.30;99.90;;;;;;4976554;28;20126;-81
2020/12/18 03:09:44;;;;;;;26.58;12.13;;;5.30;99.90;;;;;;4976523;28;20110;-78
2020/12/18 03:12:11;;;;;;;19.77;11.50;;;5.30;99.90;;;;;;4976028;28;20137;-79
2020/12/18 03:14:37;;;;;;;18.83;11.68;;;5.30;99.90;;;;;;4976108;28;20573;-79
2020/12/18 03:17:03;;;;;;;22.83;11.88;;;5.30;99.90;;;;;;4976294;28;20129;-79
2020/12/18 03:19:31;;;;;;;20.67;11.95;;;5.30;99.90;;;;;;4976881;28;20082;-77
2020/12/18 03:21:57;;;;;;;24.27;11.70;;;5.20;99.90;;;;;;4976575;28;20138;-78
2020/12/18 03:24:23;;;;;;;22.52;11.98;;;5.20;99.90;;;;;;4977549;28;20085;-79
2020/12/18 03:26:50;;;;;;;20.55;12.07;;;5.20;99.90;;;;;;4977203;28;20126;-78
2020/12/18 03:29:16;;;;;;;21.40;12.07;;;5.10;99.90;;;;;;4977270;28;20104;-78
2020/12/18 03:31:42;;;;;;;26.77;11.98;;;5.20;99.90;;;;;;4974896;28;20142;-76
2020/12/18 03:34:09;;;;;;;23.38;11.90;;;5.20;99.90;;;;;;4970081;28;20318;-79
2020/12/18 03:36:36;;;;;;;20.58;11.98;;;5.20;99.90;;;;;;4975423;28;20142;-77
2020/12/18 03:39:05;;;;;;;22.55;12.00;;;5.10;99.90;;;;;;4974676;28;20513;-77
2020/12/18 03:41:31;;;;;;;25.30;13.55;;;5.10;99.90;;;;;;4974607;28;20051;-77
2020/12/18 03:43:58;;;;;;;28.42;14.18;;;5.10;99.90;;;;;;4973825;28;20061;-79
2020/12/18 03:46:24;;;;;;;22.85;14.43;;;5.10;99.90;;;;;;4975069;28;20093;-78
2020/12/18 03:48:51;;;;;;;28.80;14.85;;;5.10;99.90;;;;;;4975137;28;20113;-78
2020/12/18 03:51:17;;;;;;;23.15;14.05;;;5.10;99.90;;;;;;4975866;28;20134;-76
2020/12/18 03:53:44;;;;;;;26.92;14.82;;;5.10;99.90;;;;;;4972515;28;20082;-78
2020/12/18 03:56:11;;;;;;;27.30;13.80;;;5.10;99.90;;;;;;4972807;28;20062;-77
2020/12/18 03:58:37;;;;;;;23.02;13.93;;;5.10;99.90;;;;;;4973592;28;20138;-78
2020/12/18 04:01:04;;;;;;;26.83;14.18;;;5.10;99.90;;;;;;4970799;28;20126;-77
2020/12/18 04:03:30;;;;;;;27.88;13.20;;;5.10;99.90;;;;;;4973933;28;20138;-78
2020/12/18 04:05:56;;;;;;;21.10;13.35;;;5.10;99.90;;;;;;4973702;28;20130;-79
2020/12/18 04:08:23;;;;;;;26.77;12.85;;;5.10;99.90;;;;;;4973890;28;20356;-78
2020/12/18 04:10:50;;;;;;;25.20;13.10;;;5.10;99.90;;;;;;4973402;28;20082;-80
2020/12/18 04:13:16;;;;;;;21.38;12.32;;;5.00;99.90;;;;;;4972843;28;20090;-78
2020/12/18 04:15:43;;;;;;;19.65;12.70;;;5.00;99.90;;;;;;4973581;28;20130;-77
2020/12/18 04:18:10;;;;;;;23.67;15.00;;;5.10;99.90;;;;;;4973221;28;20133;-77
2020/12/18 04:20:36;;;;;;;28.75;13.77;;;5.10;99.90;;;;;;4974045;28;20057;-80
2020/12/18 04:23:03;;;;;;;25.83;13.00;;;5.10;99.90;;;;;;4973437;28;20150;-77
2020/12/18 04:25:29;;;;;;;26.27;12.90;;;5.10;99.90;;;;;;4974492;28;20138;-77
2020/12/18 04:27:56;;;;;;;18.65;11.60;;;5.00;99.90;;;;;;4973735;28;20515;-78
2020/12/18 04:30:23;;;;;;;23.65;12.50;;;5.00;99.90;;;;;;4973220;28;20138;-78
2020/12/18 04:32:49;;;;;;;24.05;12.02;;;5.00;99.90;;;;;;4972165;28;20570;-78
2020/12/18 04:35:16;;;;;;;22.70;12.02;;;5.00;99.90;;;;;;4973009;28;20105;-77
2020/12/18 04:37:42;;;;;;;22.20;11.77;;;5.00;99.90;;;;;;4973307;28;20574;-78
2020/12/18 04:40:08;;;;;;;19.60;11.20;;;5.00;99.90;;;;;;4973483;28;20131;-78
2020/12/18 04:42:35;;;;;;;25.17;11.75;;;5.00;99.90;;;;;;4972656;28;20138;-79
2020/12/18 04:45:04;;;;;;;28.52;17.80;;;5.00;99.90;;;;;;4973132;28;20146;-78
2020/12/18 04:47:32;;;;;;;23.00;11.98;;;5.00;99.90;;;;;;4972768;28;20564;-78
2020/12/18 04:50:00;;;;;;;22.38;11.93;;;5.00;99.90;;;;;;4972850;28;20142;-78
2020/12/18 04:52:29;;;;;;;19.75;12.70;;;5.00;99.90;;;;;;4972936;28;20134;-78
2020/12/18 04:55:00;;;;;;;19.83;11.85;;;5.00;99.90;;;;;;4973754;28;20482;-78
2020/12/18 04:57:28;;;;;;;25.70;12.07;;;4.90;99.90;;;;;;4974577;28;20050;-78
2020/12/18 04:59:55;;;;;;;29.55;13.25;;;5.00;99.90;;;;;;4972935;28;20133;-78
2020/12/18 05:02:23;;;;;;;28.20;13.50;;;4.90;99.90;;;;;;4971851;28;20142;-78
2020/12/18 05:04:52;;;;;;;23.92;12.73;;;5.00;99.90;;;;;;4972413;28;20086;-78
2020/12/18 05:07:19;;;;;;;27.48;13.18;;;4.90;99.90;;;;;;4973755;28;20054;-78
2020/12/18 05:09:50;;;;;;;28.70;13.50;;;4.90;99.90;;;;;;4973100;28;20142;-78
2020/12/18 05:12:16;;;;;;;31.15;14.52;;;4.80;99.90;;;;;;4972827;28;20692;-77
2020/12/18 05:14:43;;;;;;;29.08;14.38;;;4.80;99.90;;;;;;4973187;28;20125;-78
2020/12/18 05:17:11;;;;;;;29.80;13.48;;;4.80;99.90;;;;;;4972858;28;20126;-77
2020/12/18 05:19:39;;;;;;;25.17;13.80;;;4.70;99.90;;;;;;4972172;28;20153;-79
2020/12/18 05:22:07;;;;;;;26.42;15.45;;;4.80;99.90;;;;;;4972311;28;20542;-77
2020/12/18 05:24:34;;;;;;;27.45;13.95;;;4.80;99.90;;;;;;4972145;28;20468;-77
2020/12/18 05:27:01;;;;;;;27.90;17.73;;;4.80;99.90;;;;;;4972458;28;20134;-76
2020/12/18 05:29:28;;;;;;;28.38;13.88;;;4.80;99.90;;;;;;4972438;28;20055;-78
2020/12/18 05:31:56;;;;;;;28.95;15.50;;;4.80;99.90;;;;;;4971417;28;20133;-77
2020/12/18 05:34:23;;;;;;;26.00;13.85;;;4.80;99.90;;;;;;4972281;28;20530;-77
2020/12/18 05:36:50;;;;;;;28.15;14.27;;;4.80;99.90;;;;;;4972279;28;20397;-77
2020/12/18 05:39:18;;;;;;;27.02;15.98;;;4.80;99.90;;;;;;4972799;28;20090;-76
2020/12/18 05:41:54;;;;;;;25.25;14.90;;;4.80;99.90;;;;;;4972392;28;20138;-77
2020/12/18 05:44:24;;;;;;;24.23;14.10;;;4.80;99.90;;;;;;4972472;28;20093;-78
2020/12/18 05:46:52;;;;;;;23.65;14.65;;;4.80;99.90;;;;;;4973127;28;20047;-77
2020/12/18 05:49:28;;;;;;;29.05;14.18;;;4.90;99.90;;;;;;4972314;28;20137;-78
2020/12/18 05:51:56;;;;;;;24.67;14.02;;;4.90;99.90;;;;;;4971718;28;20051;-76
2020/12/18 05:54:23;;;;;;;31.23;14.35;;;4.90;99.90;;;;;;4972413;28;20051;-77
2020/12/18 05:56:51;;;;;;;29.48;13.90;;;4.90;99.90;;;;;;4973590;28;20563;-77
2020/12/18 05:59:19;;;;;;;29.10;14.30;;;4.90;99.90;;;;;;4972641;28;20243;-77
2020/12/18 06:01:47;;;;;;;25.55;14.48;;;4.80;99.90;;;;;;4973198;28;20146;-77
2020/12/18 06:04:18;;;;;;;26.95;14.10;;;4.80;99.90;;;;;;4972572;28;20527;-77
2020/12/18 06:06:47;;;;;;;27.73;14.57;;;4.80;99.90;;;;;;4976010;28;20082;-78
2020/12/18 06:09:16;;;;;;;27.33;14.13;;;4.80;99.90;;;;;;4978017;28;20130;-78
2020/12/18 06:11:42;;;;;;;22.92;13.68;;;4.80;99.90;;;;;;4976272;28;20152;-79
2020/12/18 06:14:11;;;;;;;32.08;18.55;;;4.80;99.90;;;;;;4977162;28;20090;-80
2020/12/18 06:16:43;;;;;;;23.08;14.43;;;4.80;99.90;;;;;;4977327;28;20138;-78
2020/12/18 06:19:12;;;;;;;27.60;14.27;;;4.80;99.90;;;;;;4977997;28;20114;-79
2020/12/18 06:21:39;;;;;;;33.33;15.85;;;4.80;99.90;;;;;;4977922;28;20080;-79
2020/12/18 06:24:05;;;;;;;22.45;14.60;;;4.80;99.90;;;;;;4979310;28;20110;-79
2020/12/18 06:26:33;;;;;;;31.30;15.13;;;4.80;99.90;;;;;;4979634;28;20074;-79
2020/12/18 06:29:05;;;;;;;24.40;14.35;;;4.80;99.90;;;;;;4979041;28;20051;-79
2020/12/18 06:31:32;;;;;;;27.13;14.18;;;4.70;99.90;;;;;;4977555;28;20066;-79
2020/12/18 06:34:00;;;;;;;19.42;12.95;;;4.80;99.90;;;;;;4981682;28;20051;-80
2020/12/18 06:36:56;;;;;;;26.48;14.02;;;4.80;99.90;;;;;;4981779;28;20166;-79
2020/12/18 06:39:24;;;;;;;31.88;15.27;;;4.80;99.90;;;;;;4969564;28;20430;-80
2020/12/18 06:42:10;;;;;;;22.73;13.65;;;4.80;99.90;;;;;;4978978;28;20158;-79
2020/12/18 06:44:38;;;;;;;23.73;13.63;;;4.80;99.90;;;;;;4978701;28;20055;-79
2020/12/18 06:47:13;;;;;;;23.45;13.23;;;4.80;99.90;;;;;;4979622;28;20137;-78
2020/12/18 06:50:14;;;;;;;31.65;14.18;;;4.80;99.90;;;;;;4981573;28;20435;-79
2020/12/18 06:52:51;;;;;;;28.95;12.88;;;4.80;99.90;;;;;;4987324;28;20138;-81
2020/12/18 06:55:51;;;;;;;24.23;13.73;;;4.80;99.90;;;;;;4979557;28;20046;-79
2020/12/18 06:58:20;;;;;;;27.05;15.02;;;4.80;99.90;;;;;;4976760;28;20135;-79
2020/12/18 07:00:51;;;;;;;30.13;14.13;;;4.80;99.90;;;;;;4979041;28;20093;-77
2020/12/18 07:03:43;;;;;;;30.13;14.77;;;4.80;99.90;;;;;;4977212;28;20190;-80
2020/12/18 07:06:11;;;;;;;25.65;13.55;;;4.80;99.90;;;;;;4978454;28;20058;-79
2020/12/18 07:08:40;;;;;;;25.70;14.75;;;4.80;99.90;;;;;;4980988;28;20082;-81
2020/12/18 07:11:08;;;;;;;31.15;14.48;;;4.80;99.90;;;;;;4976753;28;20082;-80
2020/12/18 07:13:36;;;;;;;27.90;14.90;;;4.90;99.90;;;;;;4979700;28;20543;-79
2020/12/18 07:16:05;;;;;;;37.85;15.98;;;4.90;99.90;;;;;;4975414;28;20435;-79
2020/12/18 07:18:34;;;;;;;28.02;15.70;;;4.90;99.90;;;;;;4976015;28;20093;-79
2020/12/18 07:21:02;;;;;;;34.22;18.65;;;4.90;99.90;;;;;;4979781;28;20054;-80
2020/12/18 07:23:30;;;;;;;28.70;14.07;;;4.90;99.90;;;;;;4985384;28;20042;-81
2020/12/18 07:25:58;;;;;;;25.25;14.07;;;5.00;99.90;;;;;;4966837;28;20047;-79
2020/12/18 07:28:26;;;;;;;28.23;14.80;;;5.10;99.90;;;;;;4981611;28;20043;-82
2020/12/18 07:30:55;;;;;;;33.92;15.15;;;5.10;99.90;;;;;;4979684;28;20164;-80
2020/12/18 07:33:23;;;;;;;34.72;21.45;;;5.10;99.90;;;;;;4979395;28;20053;-79
2020/12/18 07:35:51;;;;;;;26.90;15.05;;;5.10;99.90;;;;;;4979658;28;20194;-80
2020/12/18 07:38:22;;;;;;;29.15;15.60;;;5.10;99.90;;;;;;4979425;28;20093;-79
2020/12/18 07:40:51;;;;;;;32.05;14.55;;;5.10;99.90;;;;;;4979841;28;20061;-80
2020/12/18 07:43:19;;;;;;;31.35;15.40;;;5.20;99.90;;;;;;4981510;28;20062;-80
2020/12/18 07:45:47;;;;;;;21.48;13.57;;;5.20;99.90;;;;;;4982141;28;20054;-82
2020/12/18 07:48:16;;;;;;;24.30;15.60;;;5.20;99.90;;;;;;4982227;28;20078;-79
2020/12/18 07:50:58;;;;;;;34.35;15.07;;;5.30;99.90;;;;;;4985073;28;20061;-79
2020/12/18 07:53:26;;;;;;;25.15;15.32;;;5.30;99.90;;;;;;4987544;28;20140;-79
2020/12/18 07:56:10;;;;;;;24.58;14.23;;;5.30;99.90;;;;;;4988781;28;20070;-80
2020/12/18 07:58:45;;;;;;;24.33;13.40;;;5.40;99.90;;;;;;4979063;28;20130;-79
2020/12/18 08:01:13;;;;;;;28.88;13.80;;;5.50;99.90;;;;;;4976913;28;20503;-80
2020/12/18 08:03:45;;;;;;;28.45;14.32;;;5.50;99.90;;;;;;4977702;28;20218;-78
2020/12/18 08:06:17;;;;;;;27.40;13.95;;;5.60;99.90;;;;;;4985361;28;20058;-84
2020/12/18 08:08:50;;;;;;;26.10;14.70;;;5.70;99.90;;;;;;4988372;28;20094;-83
2020/12/18 08:11:18;;;;;;;29.30;14.15;;;5.70;99.90;;;;;;4985767;28;20058;-84
2020/12/18 08:13:45;;;;;;;23.80;13.68;;;5.70;99.90;;;;;;4986355;28;20146;-82
2020/12/18 08:16:14;;;;;;;20.00;12.48;;;5.80;99.90;;;;;;4986493;28;20089;-83
2020/12/18 08:18:50;;;;;;;21.40;12.02;;;5.80;99.90;;;;;;4986410;28;20078;-83
2020/12/18 08:21:22;;;;;;;22.33;12.60;;;5.80;99.90;;;;;;4985842;28;20051;-82
2020/12/18 08:23:55;;;;;;;17.48;9.38;;;5.80;99.90;;;;;;4983963;28;20051;-83
2020/12/18 08:26:23;;;;;;;21.77;12.13;;;5.90;99.90;;;;;;4983076;28;20051;-82
2020/12/18 08:28:52;;;;;;;26.25;12.75;;;5.80;99.90;;;;;;4983412;28;20055;-84
2020/12/18 08:31:19;;;;;;;23.30;13.05;;;5.90;99.90;;;;;;4983402;28;20109;-83
2020/12/18 08:33:52;;;;;;;21.83;12.90;;;6.00;99.90;;;;;;4982354;28;20047;-82
2020/12/18 08:36:19;;;;;;;20.25;12.70;;;6.10;99.90;;;;;;4983038;28;20050;-81
2020/12/18 08:39:00;;;;;;;19.45;11.45;;;6.10;99.90;;;;;;4980330;28;20496;-82
2020/12/18 08:41:37;;;;;;;20.90;12.77;;;6.20;99.90;;;;;;4980871;28;20415;-81
2020/12/18 08:44:05;;;;;;;17.08;10.38;;;6.30;99.90;;;;;;4981269;28;20067;-82
2020/12/18 08:46:34;;;;;;;22.38;12.00;;;6.40;99.90;;;;;;4980198;28;20050;-82
2020/12/18 08:49:01;;;;;;;16.73;10.38;;;6.40;99.90;;;;;;4979849;28;20078;-81
2020/12/18 08:51:28;;;;;;;17.33;9.95;;;6.40;99.90;;;;;;4981119;28;20043;-82
2020/12/18 08:53:55;;;;;;;17.23;10.57;;;6.50;99.90;;;;;;4985484;28;20055;-81
2020/12/18 08:56:21;;;;;;;14.55;9.57;;;6.60;99.90;;;;;;4985782;28;20107;-80
2020/12/18 08:58:48;;;;;;;19.95;11.32;;;6.60;99.90;;;;;;4984812;28;20051;-83
2020/12/18 09:01:24;;;;;;;17.08;10.25;;;6.70;99.90;;;;;;4982206;28;20051;-81
2020/12/18 09:03:50;;;;;;;14.40;9.68;;;6.70;99.90;;;;;;4981874;28;20054;-81
2020/12/18 09:06:19;;;;;;;15.57;10.18;;;6.80;99.90;;;;;;4981668;28;20047;-82
2020/12/18 09:08:45;;;;;;;19.35;10.35;;;6.80;99.90;;;;;;4983026;28;20070;-81
2020/12/18 09:11:13;;;;;;;21.67;10.52;;;6.90;99.90;;;;;;4982507;28;20057;-82
2020/12/18 09:13:42;;;;;;;16.10;9.27;;;7.00;99.90;;;;;;4982708;28;20047;-83
2020/12/18 09:16:09;;;;;;;18.13;10.25;;;7.10;99.90;;;;;;4983697;28;20518;-83
2020/12/18 09:18:37;;;;;;;16.83;9.90;;;7.10;99.90;;;;;;4982141;28;20051;-82
2020/12/18 09:21:12;;;;;;;15.80;10.32;;;7.20;99.90;;;;;;4981879;28;20121;-81
2020/12/18 09:23:40;;;;;;;25.40;10.20;;;7.20;99.90;;;;;;4983161;28;20055;-81
2020/12/18 09:26:06;;;;;;;20.60;9.70;;;7.30;99.90;;;;;;4982460;28;20051;-82
2020/12/18 09:28:38;;;;;;;17.38;8.85;;;7.30;99.90;;;;;;4982651;28;20042;-82
2020/12/18 09:31:05;;;;;;;17.40;9.07;;;7.40;99.90;;;;;;4982592;28;20052;-76
2020/12/18 09:33:33;;;;;;;15.30;9.40;;;7.50;99.90;;;;;;4985352;28;20058;-83
2020/12/18 09:36:02;;;;;;;13.63;9.20;;;7.60;99.90;;;;;;4983610;28;20077;-81
2020/12/18 09:38:31;;;;;;;16.38;9.30;;;7.60;99.90;;;;;;4983166;28;20043;-83
2020/12/18 09:40:59;;;;;;;17.15;9.52;;;7.70;99.90;;;;;;4981068;28;20110;-80
2020/12/18 09:43:26;;;;;;;13.85;9.05;;;7.70;99.90;;;;;;4981747;28;20074;-82
2020/12/18 09:45:53;;;;;;;14.50;8.75;;;7.80;99.90;;;;;;4982311;28;20137;-82
2020/12/18 09:48:20;;;;;;;19.45;8.85;;;7.80;99.90;;;;;;4981641;28;20043;-83
2020/12/18 09:50:49;;;;;;;14.00;8.57;;;7.90;99.90;;;;;;4981750;28;20078;-83
2020/12/18 09:53:16;;;;;;;14.80;8.30;;;7.90;99.90;;;;;;4981793;28;20526;-83
2020/12/18 09:55:42;;;;;;;14.70;8.63;;;7.90;99.90;;;;;;4981136;28;20065;-84
2020/12/18 09:58:10;;;;;;;16.20;8.77;;;8.00;99.90;;;;;;4981515;28;20105;-83
2020/12/18 10:00:36;;;;;;;14.25;8.98;;;7.90;99.90;;;;;;4980143;28;20166;-83
2020/12/18 10:03:06;;;;;;;13.88;9.02;;;8.00;99.90;;;;;;4982584;28;20058;-83
2020/12/18 10:05:33;;;;;;;14.65;8.43;;;8.00;99.90;;;;;;4984183;28;20051;-85
2020/12/18 10:08:01;;;;;;;14.90;9.43;;;8.00;99.90;;;;;;4984754;28;20051;-85
2020/12/18 10:10:28;;;;;;;17.75;9.70;;;7.90;99.90;;;;;;4983699;28;20508;-85
2020/12/18 10:12:55;;;;;;;13.13;8.43;;;8.00;99.90;;;;;;4984532;28;20051;-84
2020/12/18 10:15:22;;;;;;;13.23;7.95;;;8.00;99.90;;;;;;4984721;28;20504;-84
2020/12/18 10:17:49;;;;;;;12.85;8.43;;;8.00;99.90;;;;;;4984917;28;20051;-82
2020/12/18 10:20:16;;;;;;;13.77;7.90;;;8.10;99.90;;;;;;4980607;28;20050;-83
2020/12/18 10:22:43;;;;;;;15.98;8.52;;;8.10;99.90;;;;;;4979624;28;20062;-81
2020/12/18 10:25:09;;;;;;;13.55;8.38;;;8.10;99.90;;;;;;4980723;28;20078;-82
2020/12/18 10:27:36;;;;;;;19.73;8.95;;;8.20;99.90;;;;;;4981016;28;20046;-82
2020/12/18 10:30:04;;;;;;;17.55;8.30;;;8.20;99.90;;;;;;4980746;28;20055;-83
2020/12/18 10:32:31;;;;;;;12.27;8.25;;;8.30;99.90;;;;;;4980439;28;20059;-83
2020/12/18 10:34:58;;;;;;;11.85;7.47;;;8.40;99.90;;;;;;4981000;28;20134;-84
2020/12/18 10:37:25;;;;;;;11.82;7.45;;;8.40;99.90;;;;;;4980460;28;20074;-82
2020/12/18 10:39:52;;;;;;;11.75;8.00;;;8.40;99.90;;;;;;4980023;28;20451;-83
2020/12/18 10:42:19;;;;;;;11.35;7.18;;;8.50;99.90;;;;;;4981362;28;20082;-83
2020/12/18 10:44:45;;;;;;;14.50;8.25;;;8.50;99.90;;;;;;4985375;28;20043;-82
2020/12/18 10:47:12;;;;;;;12.68;8.38;;;8.50;99.90;;;;;;4982903;28;20082;-81
2020/12/18 10:49:39;;;;;;;13.85;8.00;;;8.60;99.90;;;;;;4980026;28;20085;-82
2020/12/18 10:52:06;;;;;;;12.98;7.82;;;8.60;99.90;;;;;;4980884;28;20091;-82
2020/12/18 10:54:33;;;;;;;11.20;7.95;;;8.70;99.90;;;;;;4983337;28;20083;-82
2020/12/18 10:56:59;;;;;;;15.15;8.75;;;8.80;99.90;;;;;;4983944;28;20051;-83
2020/12/18 10:59:26;;;;;;;13.27;8.40;;;8.80;99.90;;;;;;4983252;28;20050;-83
2020/12/18 11:01:53;;;;;;;20.92;8.38;;;8.90;99.90;;;;;;4982955;28;20137;-82
2020/12/18 11:04:20;;;;;;;11.02;7.43;;;8.90;99.90;;;;;;4983101;28;20054;-83
2020/12/18 11:06:48;;;;;;;11.38;7.35;;;9.00;99.90;;;;;;4983288;28;20090;-82
2020/12/18 11:09:15;;;;;;;11.82;7.53;;;9.00;99.90;;;;;;4983862;28;20098;-83
2020/12/18 11:11:41;;;;;;;11.07;6.93;;;9.00;99.90;;;;;;4982599;28;20158;-81
2020/12/18 11:14:09;;;;;;;10.15;6.78;;;9.00;99.90;;;;;;4984036;28;20058;-81
2020/12/18 11:16:35;;;;;;;13.27;7.38;;;9.00;99.90;;;;;;4984928;28;20400;-82
2020/12/18 11:19:01;;;;;;;14.27;6.70;;;9.10;99.90;;;;;;4984428;28;20087;-83
2020/12/18 11:21:28;;;;;;;12.93;7.53;;;9.10;99.90;;;;;;4983657;28;20526;-83
2020/12/18 11:23:56;;;;;;;12.90;6.97;;;9.00;99.90;;;;;;4986026;28;20503;-83
2020/12/18 11:26:23;;;;;;;11.27;7.05;;;9.00;99.90;;;;;;4985046;28;20066;-82
2020/12/18 11:28:50;;;;;;;14.02;7.50;;;9.00;99.90;;;;;;4984847;28;20050;-82
2020/12/18 11:31:16;;;;;;;11.05;7.10;;;9.00;99.90;;;;;;4982301;28;20078;-82
2020/12/18 11:33:43;;;;;;;12.18;6.40;;;9.00;99.90;;;;;;4983509;28;20086;-82
2020/12/18 11:36:09;;;;;;;10.35;6.70;;;9.10;99.90;;;;;;4983775;28;20161;-82
2020/12/18 11:38:36;;;;;;;12.35;6.43;;;9.20;99.90;;;;;;4983030;28;20082;-84
2020/12/18 11:41:04;;;;;;;12.00;7.03;;;9.20;99.90;;;;;;4982953;28;20609;-82
2020/12/18 11:43:31;;;;;;;10.68;6.40;;;9.30;99.90;;;;;;4983149;28;20078;-82
2020/12/18 11:45:59;;;;;;;9.82;6.47;;;9.40;99.90;;;;;;4984269;28;20094;-81
2020/12/18 11:48:26;;;;;;;11.48;6.72;;;9.40;99.90;;;;;;4985358;28;20074;-82
2020/12/18 11:50:53;;;;;;;10.75;6.72;;;9.50;99.90;;;;;;4984121;28;20058;-82
2020/12/18 11:53:19;;;;;;;8.93;6.35;;;9.50;99.90;;;;;;4984188;28;20479;-81
2020/12/18 11:55:45;;;;;;;11.70;6.57;;;9.50;99.90;;;;;;4984341;28;20047;-81
2020/12/18 11:58:13;;;;;;;9.00;6.55;;;9.60;99.90;;;;;;4984800;28;20047;-82
2020/12/18 12:03:25;;;;;;;8.88;6.25;;;9.70;99.90;;;;;;4982423;28;20054;-81
2020/12/18 12:05:56;;;;;;;9.65;6.50;;;9.70;99.90;;;;;;4985019;28;20058;-82
2020/12/18 12:08:23;;;;;;;8.70;6.25;;;9.70;99.90;;;;;;4984946;28;20590;-82
2020/12/18 12:10:50;;;;;;;12.60;6.25;;;9.80;99.90;;;;;;4991661;28;20075;-81
2020/12/18 12:13:17;;;;;;;9.77;6.10;;;9.80;99.90;;;;;;4986488;28;20448;-81
2020/12/18 12:15:44;;;;;;;10.15;6.30;;;9.80;99.90;;;;;;4985194;28;20074;-82
2020/12/18 12:18:10;;;;;;;10.50;6.40;;;9.90;99.90;;;;;;4982738;28;20051;-82
2020/12/18 12:20:37;;;;;;;11.88;6.72;;;9.90;99.90;;;;;;4984495;28;20110;-82
2020/12/18 12:23:03;;;;;;;13.73;6.72;;;9.90;99.90;;;;;;4986617;28;20051;-82
2020/12/18 12:25:30;;;;;;;10.85;6.63;;;9.90;99.90;;;;;;4987063;28;20086;-81
2020/12/18 12:27:59;;;;;;;10.38;6.25;;;10.00;99.90;;;;;;4986785;28;20387;-82
2020/12/18 12:30:26;;;;;;;9.18;5.90;;;10.00;99.90;;;;;;4984981;28;20055;-82
2020/12/18 12:32:54;;;;;;;8.90;6.32;;;10.00;99.90;;;;;;4982497;28;20097;-82
2020/12/18 12:35:22;;;;;;;9.98;6.20;;;10.00;99.90;;;;;;4983857;28;20055;-82
2020/12/18 12:37:49;;;;;;;11.02;6.60;;;10.00;99.90;;;;;;4985115;28;20086;-82
2020/12/18 12:40:15;;;;;;;13.43;6.03;;;10.00;99.90;;;;;;4990476;28;20058;-81
2020/12/18 12:42:41;;;;;;;10.35;6.35;;;10.00;99.90;;;;;;4994133;28;20051;-83
2020/12/18 12:45:08;;;;;;;11.13;6.20;;;10.10;99.90;;;;;;4990673;28;20075;-83
2020/12/18 12:47:35;;;;;;;8.55;5.90;;;10.10;99.90;;;;;;4990677;28;20046;-81